Time;durP1;ratioP1;P1;durP2;ratioP2;P2;SDS_P1;SDS_P2;PMS_P1;PMS_P2;Temp;Humidity;BMP_temperature;BMP_pressure;BME280_temperature;BME280_humidity;BME280_pressure;Samples;Min_cycle;Max_cycle;Signal;HPM_P1;HPM_P2
2021/07/22 00:00:42;;;;;;;6.15;2.58;;;;;;;;;;5009177;28;20383;-71
2021/07/22 00:03:09;;;;;;;7.40;2.95;;;;;;;;;;5010160;28;20014;-71
2021/07/22 00:05:36;;;;;;;6.93;2.80;;;;;;;;;;5012601;28;20023;-72
2021/07/22 00:08:04;;;;;;;7.43;3.33;;;;;;;;;;4994768;28;20037;-71
2021/07/22 00:10:31;;;;;;;6.07;3.22;;;;;;;;;;5012897;28;20025;-70
2021/07/22 00:12:58;;;;;;;6.80;3.20;;;;;;;;;;5011005;28;20084;-71
2021/07/22 00:15:28;;;;;;;8.23;2.67;;;;;;;;;;5010607;28;20073;-70
2021/07/22 00:17:58;;;;;;;8.82;3.03;;;;;;;;;;5011187;28;20026;-71
2021/07/22 00:20:28;;;;;;;6.90;3.40;;;;;;;;;;5012942;28;20034;-70
2021/07/22 00:22:55;;;;;;;12.65;3.60;;;;;;;;;;5011028;28;20084;-70
2021/07/22 00:25:22;;;;;;;8.60;3.50;;;;;;;;;;5012374;28;20483;-69
2021/07/22 00:27:49;;;;;;;6.63;3.00;;;;;;;;;;4995196;28;20450;-71
2021/07/22 00:30:17;;;;;;;7.97;3.03;;;;;;;;;;5011189;28;20113;-71
2021/07/22 00:32:44;;;;;;;6.57;3.20;;;;;;;;;;5024976;28;20029;-71
2021/07/22 00:35:11;;;;;;;5.63;2.85;;;;;;;;;;4994905;28;20113;-70
2021/07/22 00:37:38;;;;;;;7.55;3.63;;;;;;;;;;4996238;28;20037;-71
2021/07/22 00:40:06;;;;;;;7.75;3.20;;;;;;;;;;5019822;28;20034;-71
2021/07/22 00:42:51;;;;;;;6.53;3.15;;;;;;;;;;4990402;28;20390;-71
2021/07/22 00:45:18;;;;;;;6.70;2.92;;;;;;;;;;5007623;28;20088;-72
2021/07/22 00:47:45;;;;;;;10.10;3.85;;;;;;;;;;5008419;28;20018;-71
2021/07/22 00:50:12;;;;;;;5.80;2.67;;;;;;;;;;4988596;28;20026;-71
2021/07/22 00:52:39;;;;;;;6.47;3.47;;;;;;;;;;4984066;28;20665;-70
2021/07/22 00:55:07;;;;;;;11.32;6.43;;;;;;;;;;5006479;28;20042;-72
2021/07/22 00:57:34;;;;;;;5.82;2.88;;;;;;;;;;5002230;28;20486;-71
2021/07/22 01:00:01;;;;;;;6.72;2.40;;;;;;;;;;5008497;28;20091;-70
2021/07/22 01:02:28;;;;;;;6.78;3.13;;;;;;;;;;5009420;28;20129;-73
2021/07/22 01:04:55;;;;;;;8.70;2.72;;;;;;;;;;5007291;28;20105;-72
2021/07/22 01:07:22;;;;;;;6.07;2.55;;;;;;;;;;4994307;28;20026;-70
2021/07/22 01:09:53;;;;;;;6.68;2.70;;;;;;;;;;4995082;28;20361;-70
2021/07/22 01:12:20;;;;;;;5.55;2.50;;;;;;;;;;5005951;28;20018;-70
2021/07/22 01:14:47;;;;;;;4.35;2.38;;;;;;;;;;5010282;28;20048;-70
2021/07/22 01:17:32;;;;;;;4.40;2.38;;;;;;;;;;5003302;28;20029;-70
2021/07/22 01:20:02;;;;;;;5.88;2.58;;;;;;;;;;5008552;28;20033;-70
2021/07/22 01:22:30;;;;;;;6.25;2.03;;;;;;;;;;4986328;28;20030;-72
2021/07/22 01:24:57;;;;;;;7.95;1.80;;;;;;;;;;5009398;28;20658;-70
2021/07/22 01:27:24;;;;;;;5.20;2.65;;;;;;;;;;5007580;28;20445;-71
2021/07/22 01:29:51;;;;;;;6.07;2.33;;;;;;;;;;5012986;28;20034;-70
2021/07/22 01:32:19;;;;;;;4.75;1.77;;;;;;;;;;5011049;28;20120;-70
2021/07/22 01:34:46;;;;;;;6.35;2.30;;;;;;;;;;5019078;28;20034;-72
2021/07/22 01:37:14;;;;;;;5.55;2.60;;;;;;;;;;5010210;28;20022;-72
2021/07/22 01:39:41;;;;;;;5.60;1.40;;;;;;;;;;4993035;28;20034;-71
2021/07/22 01:42:09;;;;;;;8.93;2.60;;;;;;;;;;5004502;28;20391;-71
2021/07/22 01:44:36;;;;;;;4.15;1.85;;;;;;;;;;5016470;28;20108;-71
2021/07/22 01:47:04;;;;;;;8.25;2.30;;;;;;;;;;5013775;28;20032;-70
2021/07/22 01:49:32;;;;;;;5.22;1.45;;;;;;;;;;5014835;28;20025;-69
2021/07/22 01:52:02;;;;;;;3.45;1.60;;;;;;;;;;5013468;28;20475;-69
2021/07/22 01:54:29;;;;;;;5.22;1.88;;;;;;;;;;5004093;28;20149;-69
2021/07/22 01:57:00;;;;;;;6.10;1.95;;;;;;;;;;5010310;28;20026;-71
2021/07/22 01:59:37;;;;;;;4.65;1.67;;;;;;;;;;5005451;28;20475;-71
2021/07/22 02:02:05;;;;;;;3.72;1.45;;;;;;;;;;4997609;28;20434;-71
2021/07/22 02:04:33;;;;;;;3.95;1.73;;;;;;;;;;5010443;28;20040;-72
2021/07/22 02:07:00;;;;;;;3.42;1.23;;;;;;;;;;4995237;28;20042;-70
2021/07/22 02:09:28;;;;;;;5.28;1.15;;;;;;;;;;5010803;28;20501;-70
2021/07/22 02:11:56;;;;;;;3.03;1.17;;;;;;;;;;5005981;28;20058;-71
2021/07/22 02:14:23;;;;;;;6.30;1.20;;;;;;;;;;5002717;28;20024;-71
2021/07/22 02:16:51;;;;;;;3.45;1.05;;;;;;;;;;5006681;28;20027;-70
2021/07/22 02:19:18;;;;;;;3.88;1.42;;;;;;;;;;5003378;28;20061;-71
2021/07/22 02:21:46;;;;;;;1.23;0.70;;;;;;;;;;5012408;28;20120;-71
2021/07/22 02:24:14;;;;;;;4.40;1.52;;;;;;;;;;5013847;28;20088;-72
2021/07/22 02:26:41;;;;;;;3.47;0.68;;;;;;;;;;5012762;28;20148;-71
2021/07/22 02:29:08;;;;;;;1.65;0.70;;;;;;;;;;5013097;28;20033;-70
2021/07/22 02:31:36;;;;;;;4.00;1.23;;;;;;;;;;5009927;28;20383;-71
2021/07/22 02:34:03;;;;;;;3.28;0.60;;;;;;;;;;5008883;28;20017;-71
2021/07/22 02:36:31;;;;;;;3.95;0.77;;;;;;;;;;5008099;28;20034;-72
2021/07/22 02:38:59;;;;;;;4.25;0.90;;;;;;;;;;5008003;28;20041;-71
2021/07/22 02:41:29;;;;;;;4.30;0.70;;;;;;;;;;4989568;28;20038;-71
2021/07/22 02:43:57;;;;;;;3.78;0.52;;;;;;;;;;5011421;28;20026;-69
2021/07/22 02:46:24;;;;;;;4.95;1.02;;;;;;;;;;5010435;28;20029;-71
2021/07/22 02:48:55;;;;;;;3.47;0.70;;;;;;;;;;5010007;28;20026;-70
2021/07/22 02:51:22;;;;;;;5.65;1.05;;;;;;;;;;5010848;28;20018;-70
2021/07/22 02:53:49;;;;;;;3.05;0.90;;;;;;;;;;5010562;28;20018;-69
2021/07/22 02:56:16;;;;;;;1.65;0.70;;;;;;;;;;5010414;28;20038;-72
2021/07/22 02:58:44;;;;;;;5.20;0.70;;;;;;;;;;4992864;28;20053;-70
2021/07/22 03:01:11;;;;;;;1.92;0.50;;;;;;;;;;5020835;28;20379;-71
2021/07/22 03:03:38;;;;;;;2.60;1.00;;;;;;;;;;5022118;28;20487;-71
2021/07/22 03:06:05;;;;;;;2.83;0.73;;;;;;;;;;5030545;28;20048;-72
2021/07/22 03:08:32;;;;;;;4.53;1.38;;;;;;;;;;5024669;28;20050;-70
2021/07/22 03:11:00;;;;;;;3.72;1.17;;;;;;;;;;5009490;28;20479;-72
2021/07/22 03:13:27;;;;;;;1.83;0.60;;;;;;;;;;5019481;28;20037;-72
2021/07/22 03:15:54;;;;;;;1.67;0.70;;;;;;;;;;5007848;28;21086;-72
2021/07/22 03:18:21;;;;;;;2.55;0.68;;;;;;;;;;5017724;28;20105;-72
2021/07/22 03:20:48;;;;;;;3.47;0.75;;;;;;;;;;5009430;28;20026;-73
2021/07/22 03:23:16;;;;;;;2.50;0.80;;;;;;;;;;5004142;28;20042;-72
2021/07/22 03:25:44;;;;;;;2.53;0.80;;;;;;;;;;4992356;28;20041;-72
2021/07/22 03:28:11;;;;;;;2.42;0.57;;;;;;;;;;5006747;28;20113;-72
2021/07/22 03:30:41;;;;;;;1.92;0.90;;;;;;;;;;5009149;28;20034;-72
2021/07/22 03:33:08;;;;;;;2.38;1.02;;;;;;;;;;5009017;28;20434;-72
2021/07/22 03:35:37;;;;;;;4.57;0.73;;;;;;;;;;5004540;28;20457;-72
2021/07/22 03:38:04;;;;;;;2.13;0.60;;;;;;;;;;4994064;28;20460;-72
2021/07/22 03:40:31;;;;;;;3.10;0.90;;;;;;;;;;5010977;28;20029;-72
2021/07/22 03:42:58;;;;;;;7.90;0.90;;;;;;;;;;5004704;28;20044;-72
2021/07/22 03:45:25;;;;;;;2.45;0.63;;;;;;;;;;4990895;28;20034;-73
2021/07/22 03:47:53;;;;;;;1.80;0.73;;;;;;;;;;4991917;28;20036;-73
2021/07/22 03:50:20;;;;;;;5.70;0.80;;;;;;;;;;5001419;28;20497;-73
2021/07/22 03:52:54;;;;;;;2.13;0.80;;;;;;;;;;5004341;28;20391;-72
2021/07/22 03:55:21;;;;;;;1.90;0.70;;;;;;;;;;5008443;28;20029;-72
2021/07/22 03:57:48;;;;;;;1.98;0.75;;;;;;;;;;5002930;28;20084;-71
2021/07/22 04:00:15;;;;;;;2.63;1.20;;;;;;;;;;4996185;28;20086;-71
2021/07/22 04:02:42;;;;;;;1.88;0.88;;;;;;;;;;5006876;28;20029;-71
2021/07/22 04:05:10;;;;;;;4.93;0.95;;;;;;;;;;4997132;28;20037;-70
2021/07/22 04:07:37;;;;;;;2.63;0.77;;;;;;;;;;5005155;28;20535;-71
2021/07/22 04:10:04;;;;;;;3.03;0.95;;;;;;;;;;5010256;28;20041;-71
2021/07/22 04:12:31;;;;;;;3.25;0.80;;;;;;;;;;4997194;28;20513;-70
2021/07/22 04:14:59;;;;;;;5.10;1.25;;;;;;;;;;5003971;28;20099;-71
2021/07/22 04:17:26;;;;;;;4.60;0.90;;;;;;;;;;4993155;28;20034;-70
2021/07/22 04:19:53;;;;;;;4.15;0.73;;;;;;;;;;5007276;28;20022;-70
2021/07/22 04:22:20;;;;;;;3.92;0.95;;;;;;;;;;5000236;28;20075;-70
2021/07/22 04:24:47;;;;;;;4.53;0.95;;;;;;;;;;5004348;28;20078;-71
2021/07/22 04:27:14;;;;;;;4.47;1.00;;;;;;;;;;5003578;28;20030;-71
2021/07/22 04:29:41;;;;;;;2.53;0.50;;;;;;;;;;4997146;28;20034;-71
2021/07/22 04:32:09;;;;;;;2.97;0.80;;;;;;;;;;5006724;28;20021;-70
2021/07/22 04:34:36;;;;;;;4.80;0.85;;;;;;;;;;5011898;28;20068;-70
2021/07/22 04:37:05;;;;;;;2.50;0.65;;;;;;;;;;4998416;28;20095;-70
2021/07/22 04:39:32;;;;;;;3.92;0.75;;;;;;;;;;5011454;28;20034;-69
2021/07/22 04:41:59;;;;;;;5.32;0.68;;;;;;;;;;5006521;28;20594;-70
2021/07/22 04:44:31;;;;;;;2.22;0.93;;;;;;;;;;5004384;28;20492;-69
2021/07/22 04:46:58;;;;;;;5.55;1.33;;;;;;;;;;5009937;28;20018;-69
2021/07/22 04:49:25;;;;;;;2.63;0.50;;;;;;;;;;4994451;28;20069;-70
2021/07/22 04:51:52;;;;;;;2.60;0.98;;;;;;;;;;5010611;28;20022;-70
2021/07/22 04:54:19;;;;;;;3.90;0.63;;;;;;;;;;5010372;28;20510;-69
2021/07/22 04:56:47;;;;;;;2.33;0.73;;;;;;;;;;5010860;28;20044;-71
2021/07/22 04:59:14;;;;;;;5.88;1.42;;;;;;;;;;4994219;28;20056;-70
2021/07/22 05:01:41;;;;;;;3.75;0.55;;;;;;;;;;5008256;28;20080;-70
2021/07/22 05:04:08;;;;;;;3.22;0.65;;;;;;;;;;5009583;28;20026;-70
2021/07/22 05:06:35;;;;;;;2.15;0.65;;;;;;;;;;5012061;28;20068;-69
2021/07/22 05:09:03;;;;;;;3.60;0.40;;;;;;;;;;4994511;28;20062;-68
2021/07/22 05:11:32;;;;;;;2.15;0.43;;;;;;;;;;5001482;28;20061;-71
2021/07/22 05:13:59;;;;;;;0.50;0.38;;;;;;;;;;5004453;28;20079;-70
2021/07/22 05:16:26;;;;;;;2.28;0.60;;;;;;;;;;5011585;28;20418;-69
2021/07/22 05:18:54;;;;;;;2.50;0.30;;;;;;;;;;4996753;28;20034;-70
2021/07/22 05:21:23;;;;;;;2.65;0.20;;;;;;;;;;4996858;28;21062;-71
2021/07/22 05:23:51;;;;;;;1.40;0.20;;;;;;;;;;5014726;28;20072;-71
2021/07/22 05:26:18;;;;;;;4.07;0.30;;;;;;;;;;5014507;28;20406;-72
2021/07/22 05:28:45;;;;;;;3.03;0.30;;;;;;;;;;5029608;28;20084;-71
2021/07/22 05:31:13;;;;;;;0.85;0.10;;;;;;;;;;5012774;28;20052;-71
2021/07/22 05:33:42;;;;;;;1.25;0.20;;;;;;;;;;5004839;28;20034;-69
2021/07/22 05:36:10;;;;;;;1.15;0.38;;;;;;;;;;4994565;28;20069;-70
2021/07/22 05:38:38;;;;;;;7.63;0.50;;;;;;;;;;5010550;28;20602;-71
2021/07/22 05:41:06;;;;;;;2.28;0.50;;;;;;;;;;5013989;28;20053;-70
2021/07/22 05:43:33;;;;;;;2.83;0.55;;;;;;;;;;5006998;28;20026;-69
2021/07/22 05:46:00;;;;;;;2.30;0.60;;;;;;;;;;4996056;28;20113;-70
2021/07/22 05:48:27;;;;;;;1.83;0.40;;;;;;;;;;5012351;28;20053;-70
2021/07/22 05:50:55;;;;;;;3.50;1.10;;;;;;;;;;5012650;28;20029;-70
2021/07/22 05:53:22;;;;;;;4.45;0.50;;;;;;;;;;5012292;28;20018;-70
2021/07/22 05:55:49;;;;;;;1.20;0.40;;;;;;;;;;4995937;28;20478;-70
2021/07/22 05:58:16;;;;;;;2.80;1.10;;;;;;;;;;5012440;28;20022;-70
2021/07/22 06:00:43;;;;;;;4.80;1.45;;;;;;;;;;5014679;28;20387;-70
2021/07/22 06:03:10;;;;;;;5.03;1.13;;;;;;;;;;5010927;28;20426;-70
2021/07/22 06:05:38;;;;;;;6.72;1.38;;;;;;;;;;5013574;28;20403;-70
2021/07/22 06:08:06;;;;;;;2.50;0.57;;;;;;;;;;5007557;28;20069;-71
2021/07/22 06:10:33;;;;;;;11.15;0.95;;;;;;;;;;4993493;28;20038;-69
2021/07/22 06:13:01;;;;;;;4.43;1.23;;;;;;;;;;5009034;28;20058;-70
2021/07/22 06:15:28;;;;;;;3.35;0.80;;;;;;;;;;4993784;28;20038;-70
2021/07/22 06:17:55;;;;;;;4.28;0.60;;;;;;;;;;5010780;28;20021;-69
2021/07/22 06:20:22;;;;;;;1.88;0.45;;;;;;;;;;5009052;28;20076;-70
2021/07/22 06:22:49;;;;;;;9.27;1.00;;;;;;;;;;5002391;28;20072;-72
2021/07/22 06:25:17;;;;;;;4.28;0.80;;;;;;;;;;5004101;28;20054;-71
2021/07/22 06:27:44;;;;;;;4.65;0.93;;;;;;;;;;5005538;28;20036;-71
2021/07/22 06:30:13;;;;;;;4.28;0.70;;;;;;;;;;5008126;28;20572;-71
2021/07/22 06:32:40;;;;;;;4.43;0.60;;;;;;;;;;5013283;28;20048;-72
2021/07/22 06:35:07;;;;;;;4.70;0.90;;;;;;;;;;5030016;28;20034;-71
2021/07/22 06:37:47;;;;;;;3.92;0.98;;;;;;;;;;5020192;28;20056;-71
2021/07/22 06:40:14;;;;;;;3.72;0.70;;;;;;;;;;5004503;28;20460;-72
2021/07/22 06:42:42;;;;;;;3.33;0.75;;;;;;;;;;5022201;28;20018;-72
2021/07/22 06:45:10;;;;;;;4.72;0.98;;;;;;;;;;5018006;28;20026;-73
2021/07/22 06:47:38;;;;;;;10.18;1.73;;;;;;;;;;5011557;28;20030;-72
2021/07/22 06:50:05;;;;;;;7.35;1.35;;;;;;;;;;5023674;28;20037;-72
2021/07/22 06:52:33;;;;;;;3.78;1.05;;;;;;;;;;4997826;28;20028;-72
2021/07/22 06:55:00;;;;;;;5.05;1.35;;;;;;;;;;5015043;28;20048;-72
2021/07/22 06:57:27;;;;;;;2.88;0.68;;;;;;;;;;5020278;28;20045;-72
2021/07/22 06:59:54;;;;;;;7.25;1.08;;;;;;;;;;5029811;28;20037;-73
2021/07/22 07:02:21;;;;;;;5.03;1.00;;;;;;;;;;5023559;28;20033;-72
2021/07/22 07:04:48;;;;;;;4.35;1.20;;;;;;;;;;5014436;28;20038;-72
2021/07/22 07:07:19;;;;;;;5.85;1.58;;;;;;;;;;5025417;28;20041;-71
2021/07/22 07:09:46;;;;;;;8.45;2.00;;;;;;;;;;5020535;28;20049;-71
2021/07/22 07:12:13;;;;;;;6.43;1.60;;;;;;;;;;5025277;28;20576;-72
2021/07/22 07:14:41;;;;;;;5.68;1.33;;;;;;;;;;5021143;28;20029;-73
2021/07/22 07:17:08;;;;;;;5.75;0.90;;;;;;;;;;5018572;28;20053;-73
2021/07/22 07:19:35;;;;;;;6.30;1.88;;;;;;;;;;4999725;28;20037;-72
2021/07/22 07:22:02;;;;;;;7.75;1.48;;;;;;;;;;5004876;28;20038;-71
2021/07/22 07:24:30;;;;;;;5.50;1.67;;;;;;;;;;5016812;28;20037;-72
2021/07/22 07:26:57;;;;;;;4.03;1.30;;;;;;;;;;5011172;28;20449;-73
2021/07/22 07:29:25;;;;;;;6.57;1.08;;;;;;;;;;5013935;28;20021;-72
2021/07/22 07:31:52;;;;;;;8.68;1.90;;;;;;;;;;5020723;28;20029;-73
2021/07/22 07:34:19;;;;;;;5.57;1.20;;;;;;;;;;5023829;28;20034;-73
2021/07/22 07:36:46;;;;;;;7.55;2.15;;;;;;;;;;5013718;28;20037;-72
2021/07/22 07:39:15;;;;;;;7.43;2.13;;;;;;;;;;5025431;28;20025;-73
2021/07/22 07:41:42;;;;;;;8.88;2.47;;;;;;;;;;5006858;28;20072;-72
2021/07/22 07:44:10;;;;;;;8.63;2.60;;;;;;;;;;5009861;28;20106;-72
2021/07/22 07:46:37;;;;;;;9.18;2.20;;;;;;;;;;5009778;28;20386;-73
2021/07/22 07:49:05;;;;;;;10.23;2.58;;;;;;;;;;5011829;28;20029;-73
2021/07/22 07:51:33;;;;;;;6.70;2.50;;;;;;;;;;5008052;28;20026;-74
2021/07/22 07:54:00;;;;;;;8.18;2.70;;;;;;;;;;5012488;28;20092;-73
2021/07/22 07:56:27;;;;;;;8.77;2.70;;;;;;;;;;5010506;28;20399;-73
2021/07/22 07:58:54;;;;;;;8.52;3.03;;;;;;;;;;5012249;28;20834;-73
2021/07/22 08:01:25;;;;;;;8.90;2.88;;;;;;;;;;5014264;28;20030;-73
2021/07/22 08:03:52;;;;;;;8.85;2.50;;;;;;;;;;5021439;28;20014;-74
2021/07/22 08:06:20;;;;;;;12.75;3.47;;;;;;;;;;5028197;28;20475;-74
2021/07/22 08:08:47;;;;;;;9.52;2.03;;;;;;;;;;4998338;28;20065;-74
2021/07/22 08:11:14;;;;;;;8.98;1.88;;;;;;;;;;5020017;28;20437;-75
2021/07/22 08:13:41;;;;;;;8.35;1.60;;;;;;;;;;5016177;28;20037;-74
2021/07/22 08:16:08;;;;;;;6.20;2.20;;;;;;;;;;5007888;28;20041;-73
2021/07/22 08:18:35;;;;;;;12.10;2.28;;;;;;;;;;5031614;28;20474;-74
2021/07/22 08:21:03;;;;;;;6.43;2.50;;;;;;;;;;5013318;28;20048;-74
2021/07/22 08:23:30;;;;;;;10.23;3.05;;;;;;;;;;5030875;28;20394;-73
2021/07/22 08:25:57;;;;;;;10.13;2.10;;;;;;;;;;5024901;28;20462;-72
2021/07/22 08:28:24;;;;;;;9.32;2.08;;;;;;;;;;5030804;28;20030;-72
2021/07/22 08:30:51;;;;;;;6.75;2.13;;;;;;;;;;5019788;28;20482;-73
2021/07/22 08:33:18;;;;;;;11.45;2.75;;;;;;;;;;5023474;28;20026;-72
2021/07/22 08:35:45;;;;;;;9.50;2.70;;;;;;;;;;5016469;28;20112;-72
2021/07/22 08:38:15;;;;;;;8.07;2.67;;;;;;;;;;5027368;28;20528;-72
2021/07/22 08:40:43;;;;;;;8.30;2.20;;;;;;;;;;5010101;28;20038;-72
2021/07/22 08:43:10;;;;;;;7.63;2.40;;;;;;;;;;5002149;28;20353;-72
2021/07/22 08:45:37;;;;;;;9.50;2.35;;;;;;;;;;5015438;28;20022;-73
2021/07/22 08:48:04;;;;;;;7.35;2.08;;;;;;;;;;5024177;28;20037;-73
2021/07/22 08:50:32;;;;;;;8.63;2.92;;;;;;;;;;5026062;28;20588;-72
2021/07/22 08:52:59;;;;;;;8.60;1.98;;;;;;;;;;5034943;28;20398;-73
2021/07/22 08:55:26;;;;;;;7.45;2.70;;;;;;;;;;5027895;28;20137;-73
2021/07/22 08:57:54;;;;;;;8.38;3.05;;;;;;;;;;5034812;28;20104;-74
2021/07/22 09:00:21;;;;;;;7.40;2.60;;;;;;;;;;5024832;28;20021;-74
2021/07/22 09:02:48;;;;;;;5.97;2.10;;;;;;;;;;5018772;28;20034;-72
2021/07/22 09:05:15;;;;;;;12.55;2.55;;;;;;;;;;5019548;28;20033;-74
2021/07/22 09:07:42;;;;;;;7.43;1.90;;;;;;;;;;5024516;28;20452;-73
2021/07/22 09:10:14;;;;;;;9.38;2.78;;;;;;;;;;5014682;28;20042;-74
2021/07/22 09:12:48;;;;;;;13.13;1.83;;;;;;;;;;5035074;28;20041;-75
2021/07/22 09:15:24;;;;;;;8.50;2.63;;;;;;;;;;5035152;28;20061;-71
2021/07/22 09:17:52;;;;;;;4.28;1.67;;;;;;;;;;5031285;28;20666;-71
2021/07/22 09:20:30;;;;;;;12.52;2.35;;;;;;;;;;5004889;28;20117;-71
2021/07/22 09:22:58;;;;;;;7.72;2.33;;;;;;;;;;5030844;28;20017;-72
2021/07/22 09:25:44;;;;;;;7.07;1.73;;;;;;;;;;5022590;28;20029;-73
2021/07/22 09:28:16;;;;;;;11.95;2.85;;;;;;;;;;5016463;28;20025;-74
2021/07/22 09:30:56;;;;;;;14.52;2.53;;;;;;;;;;5015202;28;20075;-74
2021/07/22 09:33:52;;;;;;;16.83;2.53;;;;;;;;;;5001604;28;20366;-73
2021/07/22 09:36:22;;;;;;;8.13;1.63;;;;;;;;;;4981848;28;20048;-73
2021/07/22 09:38:49;;;;;;;9.50;2.88;;;;;;;;;;5020881;28;20025;-73
2021/07/22 09:41:23;;;;;;;9.05;2.25;;;;;;;;;;5023946;28;20026;-73
2021/07/22 09:43:51;;;;;;;12.65;2.70;;;;;;;;;;4994335;28;20034;-72
2021/07/22 09:46:18;;;;;;;8.93;2.10;;;;;;;;;;5029198;28;20037;-72
2021/07/22 09:49:03;;;;;;;12.75;3.05;;;;;;;;;;5033920;28;20382;-73
2021/07/22 09:51:34;;;;;;;8.18;2.10;;;;;;;;;;5014907;28;20180;-72
2021/07/22 09:54:11;;;;;;;6.85;1.60;;;;;;;;;;5034069;28;20032;-73
2021/07/22 09:56:39;;;;;;;4.93;1.27;;;;;;;;;;5026769;28;20064;-73
2021/07/22 09:59:06;;;;;;;9.38;1.80;;;;;;;;;;5028459;28;20030;-72
2021/07/22 10:01:42;;;;;;;6.75;1.85;;;;;;;;;;5015833;28;20033;-69
2021/07/22 10:04:10;;;;;;;6.57;2.20;;;;;;;;;;5032809;28;20026;-71
2021/07/22 10:06:39;;;;;;;11.05;2.72;;;;;;;;;;5033775;28;20029;-73
2021/07/22 10:09:09;;;;;;;9.70;1.60;;;;;;;;;;5033079;28;20056;-73
2021/07/22 10:11:37;;;;;;;10.80;3.03;;;;;;;;;;4999409;28;20084;-73
2021/07/22 10:14:04;;;;;;;10.00;1.92;;;;;;;;;;5027265;28;20088;-73
2021/07/22 10:16:31;;;;;;;11.45;2.55;;;;;;;;;;5031266;28;20037;-73
2021/07/22 10:19:00;;;;;;;4.97;2.05;;;;;;;;;;5027697;28;20049;-73
2021/07/22 10:21:30;;;;;;;12.25;3.38;;;;;;;;;;5029997;28;20152;-74
2021/07/22 10:23:57;;;;;;;10.73;2.67;;;;;;;;;;4994923;28;20084;-73
2021/07/22 10:26:25;;;;;;;6.55;2.20;;;;;;;;;;4994963;28;20035;-73
2021/07/22 10:28:52;;;;;;;8.95;1.83;;;;;;;;;;5014521;28;20547;-72
2021/07/22 10:31:19;;;;;;;7.43;1.95;;;;;;;;;;5016134;28;20018;-73
2021/07/22 10:33:47;;;;;;;9.07;1.27;;;;;;;;;;5002492;28;20037;-73
2021/07/22 10:36:15;;;;;;;8.00;2.28;;;;;;;;;;5025615;28;20046;-73
2021/07/22 10:38:44;;;;;;;4.70;1.48;;;;;;;;;;5013510;28;20034;-72
2021/07/22 10:41:31;;;;;;;10.63;1.75;;;;;;;;;;5032863;28;20509;-72
2021/07/22 10:43:58;;;;;;;10.73;1.60;;;;;;;;;;5033205;28;20033;-73
2021/07/22 10:46:25;;;;;;;9.77;1.45;;;;;;;;;;5006187;28;20065;-72
2021/07/22 10:49:13;;;;;;;7.20;2.05;;;;;;;;;;5013832;28;20022;-73
2021/07/22 10:51:40;;;;;;;5.30;1.80;;;;;;;;;;5018914;28;20432;-73
2021/07/22 10:54:07;;;;;;;7.90;2.00;;;;;;;;;;5032318;28;20075;-72
2021/07/22 10:56:37;;;;;;;7.72;1.75;;;;;;;;;;5033494;28;20537;-71
2021/07/22 10:59:04;;;;;;;6.90;1.60;;;;;;;;;;5032921;28;20057;-72
2021/07/22 11:01:44;;;;;;;5.28;2.08;;;;;;;;;;4998952;28;20093;-73
2021/07/22 11:04:23;;;;;;;5.95;1.38;;;;;;;;;;5004043;28;20112;-72
2021/07/22 11:06:59;;;;;;;5.40;1.73;;;;;;;;;;5015826;28;20029;-72
2021/07/22 11:09:42;;;;;;;6.82;1.30;;;;;;;;;;5028797;28;20129;-72
2021/07/22 11:12:09;;;;;;;5.85;1.73;;;;;;;;;;5026910;28;20029;-72
2021/07/22 11:14:37;;;;;;;6.45;1.35;;;;;;;;;;5031906;28;20071;-72
2021/07/22 11:17:04;;;;;;;8.02;1.30;;;;;;;;;;5030545;28;20044;-71
2021/07/22 11:19:31;;;;;;;3.50;1.20;;;;;;;;;;4993564;28;20041;-70
2021/07/22 11:21:58;;;;;;;6.05;1.13;;;;;;;;;;5009744;28;20034;-70
2021/07/22 11:24:30;;;;;;;5.32;1.38;;;;;;;;;;5010620;28;20503;-70
2021/07/22 11:26:58;;;;;;;3.92;1.45;;;;;;;;;;4991718;28;20133;-70
2021/07/22 11:29:26;;;;;;;5.25;1.77;;;;;;;;;;5008318;28;20026;-70
2021/07/22 11:32:02;;;;;;;6.82;1.85;;;;;;;;;;5005751;28;20105;-70
2021/07/22 11:34:30;;;;;;;5.50;1.38;;;;;;;;;;5008267;28;20084;-69
2021/07/22 11:36:58;;;;;;;9.90;1.88;;;;;;;;;;5003663;28;20065;-70
2021/07/22 11:39:51;;;;;;;4.90;1.25;;;;;;;;;;5007959;28;20474;-69
2021/07/22 11:42:18;;;;;;;4.70;1.42;;;;;;;;;;5006170;28;20124;-69
2021/07/22 11:44:45;;;;;;;4.20;1.40;;;;;;;;;;5008165;28;20032;-69
2021/07/22 11:47:13;;;;;;;7.53;1.15;;;;;;;;;;4991628;28;20520;-70
2021/07/22 11:49:40;;;;;;;5.15;1.52;;;;;;;;;;4989407;28;20841;-71
2021/07/22 11:52:07;;;;;;;3.85;0.95;;;;;;;;;;5009326;28;20018;-69
2021/07/22 11:54:35;;;;;;;7.80;1.58;;;;;;;;;;5008192;28;20053;-70
2021/07/22 11:57:02;;;;;;;4.47;0.90;;;;;;;;;;5008949;28;20391;-69
2021/07/22 11:59:30;;;;;;;3.63;1.20;;;;;;;;;;4990824;28;20402;-70
2021/07/22 12:01:57;;;;;;;5.82;0.90;;;;;;;;;;5006980;28;20038;-70
2021/07/22 12:04:26;;;;;;;4.30;1.23;;;;;;;;;;5010475;28;20667;-70
2021/07/22 12:06:53;;;;;;;5.97;1.00;;;;;;;;;;5006874;28;20025;-71
2021/07/22 12:09:20;;;;;;;6.78;1.10;;;;;;;;;;5010728;28;20049;-69
2021/07/22 12:11:51;;;;;;;6.03;0.80;;;;;;;;;;4992085;28;20029;-70
2021/07/22 12:14:29;;;;;;;6.07;1.48;;;;;;;;;;5007223;28;20481;-70
2021/07/22 12:16:57;;;;;;;3.97;1.00;;;;;;;;;;5007755;28;20029;-70
2021/07/22 12:19:25;;;;;;;4.75;0.98;;;;;;;;;;5009530;28;20032;-70
2021/07/22 12:22:10;;;;;;;4.90;1.35;;;;;;;;;;5002300;28;20542;-70
2021/07/22 12:24:38;;;;;;;7.78;1.20;;;;;;;;;;5009150;28;20379;-71
2021/07/22 12:27:05;;;;;;;8.75;1.33;;;;;;;;;;4990988;28;20026;-70
2021/07/22 12:29:32;;;;;;;7.13;1.67;;;;;;;;;;5010882;28;20072;-69
2021/07/22 12:32:09;;;;;;;7.18;1.40;;;;;;;;;;5009374;28;20018;-71
2021/07/22 12:34:39;;;;;;;6.50;1.08;;;;;;;;;;5011217;28;20026;-70
2021/07/22 12:37:06;;;;;;;4.40;1.05;;;;;;;;;;5010042;28;20095;-70
2021/07/22 12:39:33;;;;;;;7.53;1.52;;;;;;;;;;4988827;28;20029;-70
2021/07/22 12:42:20;;;;;;;4.90;0.95;;;;;;;;;;5011363;28;20026;-70
2021/07/22 12:44:49;;;;;;;8.88;1.35;;;;;;;;;;5011598;28;20087;-70
2021/07/22 12:47:26;;;;;;;5.70;0.98;;;;;;;;;;4991174;28;20394;-70
2021/07/22 12:49:53;;;;;;;3.85;1.00;;;;;;;;;;5007973;28;20018;-70
2021/07/22 12:52:21;;;;;;;10.57;1.42;;;;;;;;;;4991592;28;20536;-70
2021/07/22 12:54:48;;;;;;;5.85;0.82;;;;;;;;;;4992724;28;20061;-71
2021/07/22 12:57:15;;;;;;;8.98;1.27;;;;;;;;;;4991123;28;20026;-70
2021/07/22 12:59:43;;;;;;;4.68;1.30;;;;;;;;;;4990244;28;20049;-71
2021/07/22 13:02:10;;;;;;;6.72;1.27;;;;;;;;;;5005937;28;20194;-71
2021/07/22 13:04:37;;;;;;;5.25;1.05;;;;;;;;;;5002375;28;20161;-71
2021/07/22 13:07:04;;;;;;;4.80;1.35;;;;;;;;;;5012126;28;20128;-70
2021/07/22 13:09:32;;;;;;;4.63;1.42;;;;;;;;;;5015731;28;20045;-70
2021/07/22 13:11:59;;;;;;;9.02;1.58;;;;;;;;;;5010370;28;20036;-70
2021/07/22 13:14:26;;;;;;;5.00;1.35;;;;;;;;;;5011944;28;20431;-71
2021/07/22 13:16:54;;;;;;;6.50;2.03;;;;;;;;;;5008396;28;20416;-71
2021/07/22 13:19:21;;;;;;;5.68;1.73;;;;;;;;;;5009712;28;20373;-71
2021/07/22 13:21:49;;;;;;;7.28;1.30;;;;;;;;;;5007957;28;20029;-70
2021/07/22 13:24:16;;;;;;;8.43;1.33;;;;;;;;;;4996852;28;20095;-70
2021/07/22 13:26:43;;;;;;;8.48;1.52;;;;;;;;;;5008465;28;20179;-70
2021/07/22 13:29:10;;;;;;;5.82;1.27;;;;;;;;;;4996714;28;20075;-70
2021/07/22 13:31:37;;;;;;;7.60;1.73;;;;;;;;;;5013235;28;20030;-71
2021/07/22 13:34:04;;;;;;;4.85;1.10;;;;;;;;;;5012478;28;20181;-71
2021/07/22 13:36:31;;;;;;;6.97;1.70;;;;;;;;;;5009009;28;20045;-70
2021/07/22 13:38:59;;;;;;;4.25;1.27;;;;;;;;;;5013960;28;20026;-69
2021/07/22 13:41:27;;;;;;;5.63;1.38;;;;;;;;;;5012613;28;20013;-70
2021/07/22 13:43:54;;;;;;;5.55;1.55;;;;;;;;;;5012337;28;20117;-72
2021/07/22 13:46:24;;;;;;;4.50;1.10;;;;;;;;;;5006342;28;20034;-70
2021/07/22 13:48:51;;;;;;;4.93;1.00;;;;;;;;;;5012629;28;20030;-70
2021/07/22 13:51:18;;;;;;;10.10;1.38;;;;;;;;;;5011201;28;20109;-71
2021/07/22 13:53:45;;;;;;;7.18;2.20;;;;;;;;;;5014860;28;20022;-70
2021/07/22 13:56:12;;;;;;;5.00;1.10;;;;;;;;;;5011606;28;20026;-71
2021/07/22 13:58:40;;;;;;;6.97;1.35;;;;;;;;;;5012844;28;20073;-71
2021/07/22 14:01:07;;;;;;;7.13;1.70;;;;;;;;;;5005692;28;20030;-71
2021/07/22 14:03:34;;;;;;;4.25;1.45;;;;;;;;;;5013601;28;20061;-70
2021/07/22 14:06:01;;;;;;;8.68;1.63;;;;;;;;;;4993571;28;20116;-70
2021/07/22 14:08:28;;;;;;;4.47;1.40;;;;;;;;;;5012399;28;20466;-71
2021/07/22 14:10:55;;;;;;;6.20;1.58;;;;;;;;;;5011354;28;20030;-72
2021/07/22 14:13:23;;;;;;;5.22;1.55;;;;;;;;;;5012963;28;20021;-70
2021/07/22 14:15:50;;;;;;;6.22;1.08;;;;;;;;;;4994212;28;20129;-70
2021/07/22 14:18:17;;;;;;;7.03;1.40;;;;;;;;;;4995420;28;20022;-70
2021/07/22 14:20:44;;;;;;;4.25;1.20;;;;;;;;;;5012554;28;20052;-71
2021/07/22 14:23:13;;;;;;;4.32;0.98;;;;;;;;;;5011182;28;20022;-71
2021/07/22 14:25:40;;;;;;;5.55;1.13;;;;;;;;;;4994133;28;20030;-71
2021/07/22 14:28:07;;;;;;;6.60;2.13;;;;;;;;;;5009487;28;20034;-70
2021/07/22 14:30:35;;;;;;;3.67;1.10;;;;;;;;;;5012446;28;20034;-70
2021/07/22 14:33:03;;;;;;;9.02;2.10;;;;;;;;;;5012795;28;20074;-71
2021/07/22 14:35:30;;;;;;;8.30;1.10;;;;;;;;;;4994408;28;20520;-70
2021/07/22 14:37:57;;;;;;;7.45;1.38;;;;;;;;;;4994582;28;20470;-71
2021/07/22 14:40:24;;;;;;;3.90;1.40;;;;;;;;;;5013846;28;20060;-70
2021/07/22 14:42:51;;;;;;;3.60;1.13;;;;;;;;;;4994048;28;20038;-70
2021/07/22 14:45:18;;;;;;;4.63;0.90;;;;;;;;;;5013020;28;20114;-70
2021/07/22 14:47:45;;;;;;;6.63;1.20;;;;;;;;;;5010941;28;20080;-70
2021/07/22 14:50:12;;;;;;;5.20;1.20;;;;;;;;;;5010789;28;20497;-69